sensor_id;sensor_type;location;lat;lon;timestamp;P1;durP1;ratioP1;P2;durP2;ratioP2
51764;SDS011;37835;53.256;6.456;2023-04-01T00:01:37;9.13;;;8.27;;
51764;SDS011;37835;53.256;6.456;2023-04-01T00:04:03;9.90;;;8.30;;
51764;SDS011;37835;53.256;6.456;2023-04-01T00:06:28;9.57;;;8.27;;
51764;SDS011;37835;53.256;6.456;2023-04-01T00:08:54;8.77;;;7.97;;
51764;SDS011;37835;53.256;6.456;2023-04-01T00:11:20;9.82;;;8.82;;
51764;SDS011;37835;53.256;6.456;2023-04-01T00:13:46;8.93;;;8.07;;
51764;SDS011;37835;53.256;6.456;2023-04-01T00:16:12;9.85;;;8.30;;
51764;SDS011;37835;53.256;6.456;2023-04-01T00:18:38;9.95;;;8.98;;
51764;SDS011;37835;53.256;6.456;2023-04-01T00:21:04;9.63;;;8.60;;
51764;SDS011;37835;53.256;6.456;2023-04-01T00:23:30;10.52;;;8.50;;
51764;SDS011;37835;53.256;6.456;2023-04-01T00:25:56;9.68;;;8.48;;
51764;SDS011;37835;53.256;6.456;2023-04-01T00:28:23;9.75;;;8.75;;
51764;SDS011;37835;53.256;6.456;2023-04-01T00:30:49;9.02;;;8.13;;
51764;SDS011;37835;53.256;6.456;2023-04-01T00:33:15;9.88;;;8.82;;
51764;SDS011;37835;53.256;6.456;2023-04-01T00:35:41;12.80;;;8.70;;
51764;SDS011;37835;53.256;6.456;2023-04-01T00:38:07;9.63;;;7.85;;
51764;SDS011;37835;53.256;6.456;2023-04-01T00:40:43;10.20;;;9.05;;
51764;SDS011;37835;53.256;6.456;2023-04-01T00:43:17;10.48;;;9.48;;
51764;SDS011;37835;53.256;6.456;2023-04-01T00:45:46;11.18;;;8.80;;
51764;SDS011;37835;53.256;6.456;2023-04-01T00:48:15;9.63;;;8.80;;
51764;SDS011;37835;53.256;6.456;2023-04-01T00:50:54;9.70;;;8.68;;
51764;SDS011;37835;53.256;6.456;2023-04-01T00:53:30;10.35;;;9.35;;
51764;SDS011;37835;53.256;6.456;2023-04-01T00:56:31;12.93;;;10.05;;
51764;SDS011;37835;53.256;6.456;2023-04-01T00:58:57;11.98;;;9.25;;
51764;SDS011;37835;53.256;6.456;2023-04-01T01:01:25;10.40;;;9.30;;
51764;SDS011;37835;53.256;6.456;2023-04-01T01:03:52;8.90;;;8.00;;
51764;SDS011;37835;53.256;6.456;2023-04-01T01:08:58;10.05;;;9.05;;
51764;SDS011;37835;53.256;6.456;2023-04-01T01:14:34;10.63;;;9.63;;
51764;SDS011;37835;53.256;6.456;2023-04-01T01:17:26;12.93;;;9.35;;
51764;SDS011;37835;53.256;6.456;2023-04-01T01:23:01;10.10;;;9.00;;
51764;SDS011;37835;53.256;6.456;2023-04-01T01:28:30;10.20;;;8.85;;
51764;SDS011;37835;53.256;6.456;2023-04-01T01:31:20;13.13;;;9.52;;
51764;SDS011;37835;53.256;6.456;2023-04-01T01:36:40;10.95;;;9.05;;
51764;SDS011;37835;53.256;6.456;2023-04-01T01:39:10;10.32;;;8.90;;
51764;SDS011;37835;53.256;6.456;2023-04-01T01:41:38;10.25;;;9.13;;
51764;SDS011;37835;53.256;6.456;2023-04-01T01:44:06;10.32;;;9.23;;
51764;SDS011;37835;53.256;6.456;2023-04-01T01:46:34;11.73;;;9.20;;
51764;SDS011;37835;53.256;6.456;2023-04-01T01:49:00;10.45;;;9.40;;
51764;SDS011;37835;53.256;6.456;2023-04-01T01:51:29;11.25;;;10.05;;
51764;SDS011;37835;53.256;6.456;2023-04-01T01:53:55;13.02;;;9.25;;
51764;SDS011;37835;53.256;6.456;2023-04-01T01:56:21;11.43;;;8.95;;
51764;SDS011;37835;53.256;6.456;2023-04-01T01:58:51;10.70;;;9.43;;
51764;SDS011;37835;53.256;6.456;2023-04-01T02:01:20;10.57;;;9.48;;
51764;SDS011;37835;53.256;6.456;2023-04-01T02:03:49;10.30;;;9.20;;
51764;SDS011;37835;53.256;6.456;2023-04-01T02:06:18;10.98;;;9.88;;
51764;SDS011;37835;53.256;6.456;2023-04-01T02:11:39;11.95;;;9.55;;
51764;SDS011;37835;53.256;6.456;2023-04-01T02:14:11;13.23;;;10.00;;
51764;SDS011;37835;53.256;6.456;2023-04-01T02:16:46;14.05;;;10.30;;
51764;SDS011;37835;53.256;6.456;2023-04-01T02:19:30;13.57;;;11.07;;
51764;SDS011;37835;53.256;6.456;2023-04-01T02:22:01;11.55;;;10.32;;
51764;SDS011;37835;53.256;6.456;2023-04-01T02:24:31;11.05;;;9.57;;
51764;SDS011;37835;53.256;6.456;2023-04-01T02:27:00;16.80;;;11.27;;
51764;SDS011;37835;53.256;6.456;2023-04-01T02:29:25;14.32;;;10.40;;
51764;SDS011;37835;53.256;6.456;2023-04-01T02:31:51;12.60;;;10.63;;
51764;SDS011;37835;53.256;6.456;2023-04-01T02:34:19;12.95;;;10.93;;
51764;SDS011;37835;53.256;6.456;2023-04-01T02:36:48;11.80;;;10.63;;
51764;SDS011;37835;53.256;6.456;2023-04-01T02:39:15;14.32;;;10.82;;
51764;SDS011;37835;53.256;6.456;2023-04-01T02:41:42;13.35;;;11.25;;
51764;SDS011;37835;53.256;6.456;2023-04-01T02:44:10;12.95;;;11.05;;
51764;SDS011;37835;53.256;6.456;2023-04-01T02:46:36;14.48;;;11.40;;
51764;SDS011;37835;53.256;6.456;2023-04-01T02:49:02;13.32;;;11.55;;
51764;SDS011;37835;53.256;6.456;2023-04-01T02:51:28;12.77;;;10.95;;
51764;SDS011;37835;53.256;6.456;2023-04-01T02:53:54;13.52;;;11.23;;
51764;SDS011;37835;53.256;6.456;2023-04-01T02:56:20;13.02;;;11.60;;
51764;SDS011;37835;53.256;6.456;2023-04-01T02:58:46;15.88;;;11.75;;
51764;SDS011;37835;53.256;6.456;2023-04-01T03:01:12;13.98;;;11.93;;
51764;SDS011;37835;53.256;6.456;2023-04-01T03:03:37;14.27;;;11.30;;
51764;SDS011;37835;53.256;6.456;2023-04-01T03:06:07;13.05;;;11.43;;
51764;SDS011;37835;53.256;6.456;2023-04-01T03:08:34;13.90;;;11.70;;
51764;SDS011;37835;53.256;6.456;2023-04-01T03:11:00;17.13;;;11.82;;
51764;SDS011;37835;53.256;6.456;2023-04-01T03:13:26;14.00;;;11.27;;
51764;SDS011;37835;53.256;6.456;2023-04-01T03:15:52;15.40;;;11.80;;
51764;SDS011;37835;53.256;6.456;2023-04-01T03:18:18;16.60;;;12.30;;
51764;SDS011;37835;53.256;6.456;2023-04-01T03:20:44;16.10;;;13.07;;
51764;SDS011;37835;53.256;6.456;2023-04-01T03:23:10;16.15;;;13.32;;
51764;SDS011;37835;53.256;6.456;2023-04-01T03:25:35;14.27;;;12.77;;
51764;SDS011;37835;53.256;6.456;2023-04-01T03:28:01;16.27;;;13.85;;
51764;SDS011;37835;53.256;6.456;2023-04-01T03:30:27;16.30;;;13.50;;
51764;SDS011;37835;53.256;6.456;2023-04-01T03:32:54;19.45;;;14.00;;
51764;SDS011;37835;53.256;6.456;2023-04-01T03:35:20;22.05;;;15.13;;
51764;SDS011;37835;53.256;6.456;2023-04-01T03:37:46;17.10;;;14.73;;
51764;SDS011;37835;53.256;6.456;2023-04-01T03:40:11;20.30;;;15.32;;
51764;SDS011;37835;53.256;6.456;2023-04-01T03:42:37;19.48;;;14.55;;
51764;SDS011;37835;53.256;6.456;2023-04-01T03:45:03;18.85;;;14.52;;
51764;SDS011;37835;53.256;6.456;2023-04-01T03:47:29;16.48;;;14.32;;
51764;SDS011;37835;53.256;6.456;2023-04-01T03:49:55;19.38;;;15.02;;
51764;SDS011;37835;53.256;6.456;2023-04-01T03:52:21;21.05;;;16.17;;
51764;SDS011;37835;53.256;6.456;2023-04-01T03:54:46;20.48;;;15.20;;
51764;SDS011;37835;53.256;6.456;2023-04-01T03:57:12;18.48;;;15.00;;
51764;SDS011;37835;53.256;6.456;2023-04-01T03:59:38;19.83;;;15.27;;
51764;SDS011;37835;53.256;6.456;2023-04-01T04:02:03;18.40;;;15.25;;
51764;SDS011;37835;53.256;6.456;2023-04-01T04:04:29;17.38;;;14.30;;
51764;SDS011;37835;53.256;6.456;2023-04-01T04:06:55;16.92;;;14.80;;
51764;SDS011;37835;53.256;6.456;2023-04-01T04:09:21;17.48;;;14.27;;
51764;SDS011;37835;53.256;6.456;2023-04-01T04:11:48;19.77;;;15.40;;
51764;SDS011;37835;53.256;6.456;2023-04-01T04:14:13;18.42;;;14.68;;
51764;SDS011;37835;53.256;6.456;2023-04-01T04:16:39;24.50;;;15.02;;
51764;SDS011;37835;53.256;6.456;2023-04-01T04:19:05;17.85;;;14.45;;
51764;SDS011;37835;53.256;6.456;2023-04-01T04:21:30;21.52;;;15.23;;
51764;SDS011;37835;53.256;6.456;2023-04-01T04:23:57;19.73;;;16.30;;
51764;SDS011;37835;53.256;6.456;2023-04-01T04:26:23;22.90;;;16.65;;
51764;SDS011;37835;53.256;6.456;2023-04-01T04:28:49;22.08;;;17.10;;
51764;SDS011;37835;53.256;6.456;2023-04-01T04:31:21;24.95;;;18.13;;
51764;SDS011;37835;53.256;6.456;2023-04-01T04:33:47;25.00;;;18.55;;
51764;SDS011;37835;53.256;6.456;2023-04-01T04:36:13;26.02;;;19.48;;
51764;SDS011;37835;53.256;6.456;2023-04-01T04:38:40;28.25;;;18.30;;
51764;SDS011;37835;53.256;6.456;2023-04-01T04:41:12;29.45;;;18.63;;
51764;SDS011;37835;53.256;6.456;2023-04-01T04:43:39;26.17;;;18.25;;
51764;SDS011;37835;53.256;6.456;2023-04-01T04:46:09;27.20;;;20.33;;
51764;SDS011;37835;53.256;6.456;2023-04-01T04:48:36;25.88;;;19.15;;
51764;SDS011;37835;53.256;6.456;2023-04-01T04:51:01;24.38;;;19.15;;
51764;SDS011;37835;53.256;6.456;2023-04-01T04:53:28;24.00;;;18.13;;
51764;SDS011;37835;53.256;6.456;2023-04-01T04:55:54;25.70;;;18.27;;
51764;SDS011;37835;53.256;6.456;2023-04-01T04:58:20;26.67;;;18.65;;
51764;SDS011;37835;53.256;6.456;2023-04-01T05:00:46;25.38;;;18.48;;
51764;SDS011;37835;53.256;6.456;2023-04-01T05:03:12;25.08;;;18.27;;
51764;SDS011;37835;53.256;6.456;2023-04-01T05:05:38;23.48;;;18.38;;
51764;SDS011;37835;53.256;6.456;2023-04-01T05:08:04;26.17;;;18.95;;
51764;SDS011;37835;53.256;6.456;2023-04-01T05:10:30;23.42;;;18.20;;
51764;SDS011;37835;53.256;6.456;2023-04-01T05:12:56;27.13;;;19.42;;
51764;SDS011;37835;53.256;6.456;2023-04-01T05:15:23;25.98;;;19.33;;
51764;SDS011;37835;53.256;6.456;2023-04-01T05:17:48;29.75;;;19.45;;
51764;SDS011;37835;53.256;6.456;2023-04-01T05:20:14;27.10;;;20.08;;
51764;SDS011;37835;53.256;6.456;2023-04-01T05:22:40;25.73;;;19.45;;
51764;SDS011;37835;53.256;6.456;2023-04-01T05:25:07;24.60;;;19.30;;
51764;SDS011;37835;53.256;6.456;2023-04-01T05:27:32;28.45;;;20.30;;
51764;SDS011;37835;53.256;6.456;2023-04-01T05:29:58;30.85;;;20.33;;
51764;SDS011;37835;53.256;6.456;2023-04-01T05:32:24;27.95;;;20.67;;
51764;SDS011;37835;53.256;6.456;2023-04-01T05:34:50;28.80;;;21.60;;
51764;SDS011;37835;53.256;6.456;2023-04-01T05:37:16;26.13;;;21.20;;
51764;SDS011;37835;53.256;6.456;2023-04-01T05:39:42;30.50;;;20.70;;
51764;SDS011;37835;53.256;6.456;2023-04-01T05:42:07;28.30;;;20.33;;
51764;SDS011;37835;53.256;6.456;2023-04-01T05:44:33;29.00;;;20.65;;
51764;SDS011;37835;53.256;6.456;2023-04-01T05:47:00;29.48;;;20.35;;
51764;SDS011;37835;53.256;6.456;2023-04-01T05:49:26;32.42;;;20.98;;
51764;SDS011;37835;53.256;6.456;2023-04-01T05:51:52;28.80;;;19.70;;
51764;SDS011;37835;53.256;6.456;2023-04-01T05:54:17;28.52;;;20.48;;
51764;SDS011;37835;53.256;6.456;2023-04-01T05:56:44;28.17;;;20.23;;
51764;SDS011;37835;53.256;6.456;2023-04-01T05:59:10;26.02;;;20.15;;
51764;SDS011;37835;53.256;6.456;2023-04-01T06:01:36;27.52;;;19.67;;
51764;SDS011;37835;53.256;6.456;2023-04-01T06:04:02;27.85;;;19.98;;
51764;SDS011;37835;53.256;6.456;2023-04-01T06:06:28;27.38;;;19.50;;
51764;SDS011;37835;53.256;6.456;2023-04-01T06:08:57;28.85;;;19.95;;
51764;SDS011;37835;53.256;6.456;2023-04-01T06:11:37;28.02;;;19.98;;
51764;SDS011;37835;53.256;6.456;2023-04-01T06:14:09;27.17;;;19.90;;
51764;SDS011;37835;53.256;6.456;2023-04-01T06:16:49;27.40;;;19.73;;
51764;SDS011;37835;53.256;6.456;2023-04-01T06:19:36;29.95;;;20.88;;
51764;SDS011;37835;53.256;6.456;2023-04-01T06:25:21;26.70;;;20.30;;
51764;SDS011;37835;53.256;6.456;2023-04-01T06:28:02;28.13;;;20.27;;
51764;SDS011;37835;53.256;6.456;2023-04-01T06:30:38;32.58;;;22.35;;
51764;SDS011;37835;53.256;6.456;2023-04-01T06:33:20;30.10;;;21.85;;
51764;SDS011;37835;53.256;6.456;2023-04-01T06:38:41;27.55;;;20.88;;
51764;SDS011;37835;53.256;6.456;2023-04-01T06:47:01;27.50;;;20.70;;
51764;SDS011;37835;53.256;6.456;2023-04-01T06:55:02;28.40;;;20.90;;
51764;SDS011;37835;53.256;6.456;2023-04-01T06:57:36;29.50;;;21.42;;
51764;SDS011;37835;53.256;6.456;2023-04-01T07:00:14;30.55;;;20.45;;
51764;SDS011;37835;53.256;6.456;2023-04-01T07:02:48;28.75;;;19.85;;
51764;SDS011;37835;53.256;6.456;2023-04-01T07:05:20;29.65;;;22.38;;
51764;SDS011;37835;53.256;6.456;2023-04-01T07:07:48;26.13;;;21.65;;
51764;SDS011;37835;53.256;6.456;2023-04-01T07:13:04;29.45;;;22.40;;
51764;SDS011;37835;53.256;6.456;2023-04-01T07:15:37;28.23;;;22.38;;
51764;SDS011;37835;53.256;6.456;2023-04-01T07:18:12;30.27;;;23.50;;
51764;SDS011;37835;53.256;6.456;2023-04-01T07:20:42;32.28;;;23.20;;
51764;SDS011;37835;53.256;6.456;2023-04-01T07:23:15;27.58;;;22.33;;
51764;SDS011;37835;53.256;6.456;2023-04-01T07:25:47;28.67;;;22.85;;
51764;SDS011;37835;53.256;6.456;2023-04-01T07:28:18;31.40;;;22.58;;
51764;SDS011;37835;53.256;6.456;2023-04-01T07:33:38;29.30;;;21.60;;
51764;SDS011;37835;53.256;6.456;2023-04-01T07:36:20;27.15;;;20.85;;
51764;SDS011;37835;53.256;6.456;2023-04-01T07:39:09;29.13;;;21.80;;
51764;SDS011;37835;53.256;6.456;2023-04-01T07:42:28;27.35;;;21.30;;
51764;SDS011;37835;53.256;6.456;2023-04-01T07:50:29;25.70;;;20.63;;
51764;SDS011;37835;53.256;6.456;2023-04-01T07:53:16;23.75;;;20.45;;
51764;SDS011;37835;53.256;6.456;2023-04-01T07:56:02;25.30;;;20.13;;
51764;SDS011;37835;53.256;6.456;2023-04-01T07:58:45;24.08;;;18.73;;
51764;SDS011;37835;53.256;6.456;2023-04-01T08:04:17;21.35;;;17.88;;
51764;SDS011;37835;53.256;6.456;2023-04-01T08:06:59;21.92;;;17.60;;
51764;SDS011;37835;53.256;6.456;2023-04-01T08:20:18;20.10;;;16.13;;
51764;SDS011;37835;53.256;6.456;2023-04-01T08:25:35;18.15;;;15.70;;
51764;SDS011;37835;53.256;6.456;2023-04-01T08:31:02;16.98;;;15.18;;
51764;SDS011;37835;53.256;6.456;2023-04-01T08:33:32;16.48;;;14.57;;
51764;SDS011;37835;53.256;6.456;2023-04-01T08:38:46;17.80;;;14.82;;
51764;SDS011;37835;53.256;6.456;2023-04-01T08:50:04;6.72;;;6.10;;
51764;SDS011;37835;53.256;6.456;2023-04-01T09:01:14;8.52;;;6.32;;
51764;SDS011;37835;53.256;6.456;2023-04-01T09:06:58;6.88;;;6.18;;
51764;SDS011;37835;53.256;6.456;2023-04-01T09:10:01;6.90;;;5.68;;
51764;SDS011;37835;53.256;6.456;2023-04-01T09:15:32;5.53;;;5.03;;
51764;SDS011;37835;53.256;6.456;2023-04-01T09:21:19;4.25;;;3.85;;
51764;SDS011;37835;53.256;6.456;2023-04-01T09:27:04;4.32;;;3.92;;
51764;SDS011;37835;53.256;6.456;2023-04-01T09:41:29;3.92;;;3.42;;
51764;SDS011;37835;53.256;6.456;2023-04-01T09:44:15;3.65;;;3.35;;
51764;SDS011;37835;53.256;6.456;2023-04-01T09:47:15;4.07;;;3.30;;
51764;SDS011;37835;53.256;6.456;2023-04-01T09:51:00;3.47;;;3.17;;
51764;SDS011;37835;53.256;6.456;2023-04-01T09:56:01;4.18;;;3.45;;
51764;SDS011;37835;53.256;6.456;2023-04-01T09:58:47;3.67;;;3.05;;
51764;SDS011;37835;53.256;6.456;2023-04-01T10:06:51;3.53;;;2.25;;
51764;SDS011;37835;53.256;6.456;2023-04-01T10:15:41;4.82;;;3.08;;
51764;SDS011;37835;53.256;6.456;2023-04-01T10:18:25;3.35;;;2.95;;
51764;SDS011;37835;53.256;6.456;2023-04-01T10:26:53;3.72;;;2.53;;
51764;SDS011;37835;53.256;6.456;2023-04-01T10:35:26;3.20;;;2.45;;
51764;SDS011;37835;53.256;6.456;2023-04-01T10:41:07;3.40;;;2.03;;
51764;SDS011;37835;53.256;6.456;2023-04-01T10:46:46;2.47;;;1.90;;
51764;SDS011;37835;53.256;6.456;2023-04-01T10:49:41;2.10;;;1.90;;
51764;SDS011;37835;53.256;6.456;2023-04-01T11:17:42;1.90;;;1.80;;
51764;SDS011;37835;53.256;6.456;2023-04-01T11:23:01;2.88;;;2.03;;
51764;SDS011;37835;53.256;6.456;2023-04-01T11:39:32;2.90;;;2.00;;
51764;SDS011;37835;53.256;6.456;2023-04-01T11:42:12;2.60;;;2.10;;
51764;SDS011;37835;53.256;6.456;2023-04-01T11:48:03;3.08;;;2.15;;
51764;SDS011;37835;53.256;6.456;2023-04-01T11:50:37;3.83;;;2.03;;
51764;SDS011;37835;53.256;6.456;2023-04-01T11:53:23;2.00;;;1.80;;
51764;SDS011;37835;53.256;6.456;2023-04-01T11:56:13;4.80;;;2.30;;
51764;SDS011;37835;53.256;6.456;2023-04-01T11:59:20;3.08;;;2.45;;
51764;SDS011;37835;53.256;6.456;2023-04-01T12:05:03;5.32;;;1.70;;
51764;SDS011;37835;53.256;6.456;2023-04-01T12:07:44;2.22;;;1.88;;
51764;SDS011;37835;53.256;6.456;2023-04-01T12:13:23;3.70;;;1.65;;
51764;SDS011;37835;53.256;6.456;2023-04-01T12:16:23;2.05;;;1.60;;
51764;SDS011;37835;53.256;6.456;2023-04-01T12:19:17;2.42;;;1.50;;
51764;SDS011;37835;53.256;6.456;2023-04-01T12:34:53;1.48;;;1.38;;
51764;SDS011;37835;53.256;6.456;2023-04-01T12:37:43;1.75;;;1.65;;
51764;SDS011;37835;53.256;6.456;2023-04-01T12:46:41;4.10;;;1.52;;
51764;SDS011;37835;53.256;6.456;2023-04-01T12:52:04;2.35;;;1.40;;
51764;SDS011;37835;53.256;6.456;2023-04-01T12:54:55;1.65;;;1.55;;
51764;SDS011;37835;53.256;6.456;2023-04-01T13:00:45;2.22;;;1.50;;
51764;SDS011;37835;53.256;6.456;2023-04-01T13:11:41;1.65;;;1.55;;
51764;SDS011;37835;53.256;6.456;2023-04-01T13:19:55;2.35;;;1.63;;
51764;SDS011;37835;53.256;6.456;2023-04-01T13:28:38;2.08;;;1.30;;
51764;SDS011;37835;53.256;6.456;2023-04-01T13:31:05;1.83;;;1.27;;
51764;SDS011;37835;53.256;6.456;2023-04-01T13:33:58;1.60;;;1.50;;
51764;SDS011;37835;53.256;6.456;2023-04-01T13:37:09;2.92;;;1.40;;
51764;SDS011;37835;53.256;6.456;2023-04-01T13:39:56;1.35;;;1.20;;
51764;SDS011;37835;53.256;6.456;2023-04-01T13:42:29;3.50;;;1.65;;
51764;SDS011;37835;53.256;6.456;2023-04-01T13:45:14;1.10;;;1.10;;
51764;SDS011;37835;53.256;6.456;2023-04-01T13:56:28;0.90;;;0.90;;
51764;SDS011;37835;53.256;6.456;2023-04-01T14:13:17;1.17;;;1.08;;
51764;SDS011;37835;53.256;6.456;2023-04-01T14:21:12;3.42;;;1.13;;
51764;SDS011;37835;53.256;6.456;2023-04-01T14:40:45;1.30;;;1.20;;
51764;SDS011;37835;53.256;6.456;2023-04-01T14:48:53;1.52;;;1.42;;
51764;SDS011;37835;53.256;6.456;2023-04-01T14:51:34;1.70;;;1.52;;
51764;SDS011;37835;53.256;6.456;2023-04-01T14:56:48;2.95;;;1.70;;
51764;SDS011;37835;53.256;6.456;2023-04-01T15:01:53;3.38;;;1.98;;
51764;SDS011;37835;53.256;6.456;2023-04-01T15:24:34;5.75;;;2.90;;
51764;SDS011;37835;53.256;6.456;2023-04-01T15:38:40;6.55;;;3.85;;
51764;SDS011;37835;53.256;6.456;2023-04-01T15:41:16;7.40;;;3.95;;
51764;SDS011;37835;53.256;6.456;2023-04-01T15:43:49;6.47;;;4.05;;
51764;SDS011;37835;53.256;6.456;2023-04-01T15:49:04;9.30;;;5.10;;
51764;SDS011;37835;53.256;6.456;2023-04-01T15:51:36;9.13;;;5.35;;
51764;SDS011;37835;53.256;6.456;2023-04-01T15:54:32;9.00;;;5.05;;
51764;SDS011;37835;53.256;6.456;2023-04-01T15:57:26;7.53;;;4.90;;
51764;SDS011;37835;53.256;6.456;2023-04-01T16:05:54;5.93;;;4.72;;
51764;SDS011;37835;53.256;6.456;2023-04-01T16:11:18;13.02;;;5.80;;
51764;SDS011;37835;53.256;6.456;2023-04-01T16:14:26;9.48;;;5.80;;
51764;SDS011;37835;53.256;6.456;2023-04-01T16:22:37;13.23;;;5.82;;
51764;SDS011;37835;53.256;6.456;2023-04-01T16:25:17;8.70;;;5.47;;
51764;SDS011;37835;53.256;6.456;2023-04-01T16:36:28;10.73;;;6.10;;
51764;SDS011;37835;53.256;6.456;2023-04-01T16:41:48;16.48;;;7.57;;
51764;SDS011;37835;53.256;6.456;2023-04-01T16:44:54;15.35;;;6.82;;
51764;SDS011;37835;53.256;6.456;2023-04-01T16:47:29;12.80;;;6.20;;
51764;SDS011;37835;53.256;6.456;2023-04-01T16:50:21;13.30;;;6.78;;
51764;SDS011;37835;53.256;6.456;2023-04-01T16:52:57;12.90;;;6.28;;
51764;SDS011;37835;53.256;6.456;2023-04-01T16:58:01;9.80;;;5.30;;
51764;SDS011;37835;53.256;6.456;2023-04-01T17:00:28;10.93;;;5.55;;
51764;SDS011;37835;53.256;6.456;2023-04-01T17:11:19;9.68;;;5.20;;
51764;SDS011;37835;53.256;6.456;2023-04-01T17:14:00;9.68;;;5.20;;
51764;SDS011;37835;53.256;6.456;2023-04-01T17:24:39;9.38;;;5.22;;
51764;SDS011;37835;53.256;6.456;2023-04-01T17:27:40;12.27;;;6.15;;
51764;SDS011;37835;53.256;6.456;2023-04-01T17:41:54;12.57;;;6.90;;
51764;SDS011;37835;53.256;6.456;2023-04-01T17:47:08;12.95;;;5.97;;
51764;SDS011;37835;53.256;6.456;2023-04-01T17:52:33;10.77;;;6.28;;
51764;SDS011;37835;53.256;6.456;2023-04-01T17:57:52;8.05;;;5.68;;
51764;SDS011;37835;53.256;6.456;2023-04-01T18:00:39;9.73;;;5.80;;
51764;SDS011;37835;53.256;6.456;2023-04-01T18:06:10;11.75;;;5.55;;
51764;SDS011;37835;53.256;6.456;2023-04-01T18:08:58;10.00;;;5.50;;
51764;SDS011;37835;53.256;6.456;2023-04-01T18:19:47;15.25;;;6.45;;
51764;SDS011;37835;53.256;6.456;2023-04-01T18:22:41;10.73;;;6.07;;
51764;SDS011;37835;53.256;6.456;2023-04-01T18:25:16;10.60;;;6.55;;
51764;SDS011;37835;53.256;6.456;2023-04-01T18:28:18;14.57;;;6.43;;
51764;SDS011;37835;53.256;6.456;2023-04-01T18:31:04;10.63;;;6.10;;
51764;SDS011;37835;53.256;6.456;2023-04-01T18:40:11;13.65;;;6.28;;
51764;SDS011;37835;53.256;6.456;2023-04-01T18:42:46;12.93;;;6.70;;
51764;SDS011;37835;53.256;6.456;2023-04-01T18:45:22;12.02;;;6.20;;
51764;SDS011;37835;53.256;6.456;2023-04-01T18:50:51;12.95;;;5.65;;
51764;SDS011;37835;53.256;6.456;2023-04-01T18:56:02;13.30;;;6.32;;
51764;SDS011;37835;53.256;6.456;2023-04-01T18:58:35;11.63;;;6.60;;
51764;SDS011;37835;53.256;6.456;2023-04-01T19:01:11;11.25;;;6.07;;
51764;SDS011;37835;53.256;6.456;2023-04-01T19:03:48;12.68;;;6.15;;
51764;SDS011;37835;53.256;6.456;2023-04-01T19:09:09;15.10;;;7.82;;
51764;SDS011;37835;53.256;6.456;2023-04-01T19:11:45;15.13;;;7.28;;
51764;SDS011;37835;53.256;6.456;2023-04-01T19:17:35;16.40;;;6.10;;
51764;SDS011;37835;53.256;6.456;2023-04-01T19:20:22;11.52;;;5.82;;
51764;SDS011;37835;53.256;6.456;2023-04-01T19:28:22;16.30;;;6.80;;
51764;SDS011;37835;53.256;6.456;2023-04-01T19:31:19;12.75;;;6.60;;
51764;SDS011;37835;53.256;6.456;2023-04-01T19:33:58;11.30;;;6.05;;
51764;SDS011;37835;53.256;6.456;2023-04-01T19:39:39;9.95;;;6.03;;
51764;SDS011;37835;53.256;6.456;2023-04-01T19:42:30;12.70;;;6.15;;
51764;SDS011;37835;53.256;6.456;2023-04-01T19:45:11;10.85;;;5.90;;
51764;SDS011;37835;53.256;6.456;2023-04-01T19:53:35;13.55;;;5.95;;
51764;SDS011;37835;53.256;6.456;2023-04-01T19:56:30;14.57;;;6.45;;
51764;SDS011;37835;53.256;6.456;2023-04-01T20:04:34;9.52;;;5.90;;
51764;SDS011;37835;53.256;6.456;2023-04-01T20:07:17;9.82;;;5.40;;
51764;SDS011;37835;53.256;6.456;2023-04-01T20:09:58;11.27;;;5.53;;
51764;SDS011;37835;53.256;6.456;2023-04-01T20:15:55;11.75;;;5.72;;
51764;SDS011;37835;53.256;6.456;2023-04-01T20:18:04;10.00;;;5.28;;
51764;SDS011;37835;53.256;6.456;2023-04-01T20:20:39;11.43;;;5.78;;
51764;SDS011;37835;53.256;6.456;2023-04-01T20:23:27;12.80;;;6.25;;
51764;SDS011;37835;53.256;6.456;2023-04-01T20:26:32;13.88;;;5.25;;
51764;SDS011;37835;53.256;6.456;2023-04-01T20:35:00;8.50;;;4.70;;
51764;SDS011;37835;53.256;6.456;2023-04-01T20:37:40;11.75;;;4.68;;
51764;SDS011;37835;53.256;6.456;2023-04-01T20:40:23;7.63;;;4.32;;
51764;SDS011;37835;53.256;6.456;2023-04-01T20:43:07;8.07;;;4.20;;
51764;SDS011;37835;53.256;6.456;2023-04-01T20:48:36;11.27;;;4.65;;
51764;SDS011;37835;53.256;6.456;2023-04-01T20:51:30;12.68;;;4.60;;
51764;SDS011;37835;53.256;6.456;2023-04-01T20:56:57;7.95;;;4.55;;
51764;SDS011;37835;53.256;6.456;2023-04-01T20:59:35;11.75;;;4.13;;
51764;SDS011;37835;53.256;6.456;2023-04-01T21:02:30;13.20;;;4.82;;
51764;SDS011;37835;53.256;6.456;2023-04-01T21:11:09;10.98;;;4.82;;
51764;SDS011;37835;53.256;6.456;2023-04-01T21:16:53;13.68;;;5.03;;
51764;SDS011;37835;53.256;6.456;2023-04-01T21:19:46;7.45;;;4.50;;
51764;SDS011;37835;53.256;6.456;2023-04-01T21:22:41;14.70;;;5.10;;
51764;SDS011;37835;53.256;6.456;2023-04-01T21:30:54;12.88;;;4.90;;
51764;SDS011;37835;53.256;6.456;2023-04-01T21:33:37;9.98;;;4.68;;
51764;SDS011;37835;53.256;6.456;2023-04-01T21:36:31;10.60;;;4.50;;
51764;SDS011;37835;53.256;6.456;2023-04-01T21:42:14;12.40;;;5.13;;
51764;SDS011;37835;53.256;6.456;2023-04-01T22:03:22;11.77;;;5.32;;
51764;SDS011;37835;53.256;6.456;2023-04-01T22:06:05;7.90;;;5.07;;
51764;SDS011;37835;53.256;6.456;2023-04-01T22:08:38;10.50;;;4.95;;
51764;SDS011;37835;53.256;6.456;2023-04-01T22:14:03;7.00;;;4.28;;
51764;SDS011;37835;53.256;6.456;2023-04-01T22:16:44;7.60;;;4.30;;
51764;SDS011;37835;53.256;6.456;2023-04-01T22:19:21;9.88;;;4.30;;
51764;SDS011;37835;53.256;6.456;2023-04-01T22:21:52;8.75;;;4.53;;
51764;SDS011;37835;53.256;6.456;2023-04-01T22:24:37;11.45;;;4.55;;
51764;SDS011;37835;53.256;6.456;2023-04-01T22:27:15;10.93;;;4.35;;
51764;SDS011;37835;53.256;6.456;2023-04-01T22:46:09;6.90;;;3.38;;
51764;SDS011;37835;53.256;6.456;2023-04-01T22:59:48;8.35;;;3.20;;
51764;SDS011;37835;53.256;6.456;2023-04-01T23:04:53;8.75;;;3.33;;
51764;SDS011;37835;53.256;6.456;2023-04-01T23:09:53;9.05;;;3.45;;
51764;SDS011;37835;53.256;6.456;2023-04-01T23:12:22;6.68;;;2.97;;
51764;SDS011;37835;53.256;6.456;2023-04-01T23:14:50;11.52;;;3.35;;
51764;SDS011;37835;53.256;6.456;2023-04-01T23:17:22;7.50;;;3.35;;
51764;SDS011;37835;53.256;6.456;2023-04-01T23:20:12;8.18;;;3.28;;
51764;SDS011;37835;53.256;6.456;2023-04-01T23:23:08;7.13;;;3.65;;
51764;SDS011;37835;53.256;6.456;2023-04-01T23:25:52;7.32;;;3.20;;
51764;SDS011;37835;53.256;6.456;2023-04-01T23:28:44;6.70;;;3.60;;
51764;SDS011;37835;53.256;6.456;2023-04-01T23:33:56;9.55;;;2.97;;
51764;SDS011;37835;53.256;6.456;2023-04-01T23:36:25;5.38;;;3.05;;
51764;SDS011;37835;53.256;6.456;2023-04-01T23:38:51;6.30;;;2.70;;
51764;SDS011;37835;53.256;6.456;2023-04-01T23:41:19;7.47;;;3.10;;
51764;SDS011;37835;53.256;6.456;2023-04-01T23:44:09;6.25;;;2.70;;
51764;SDS011;37835;53.256;6.456;2023-04-01T23:46:38;9.23;;;3.50;;
51764;SDS011;37835;53.256;6.456;2023-04-01T23:49:14;6.55;;;3.03;;
51764;SDS011;37835;53.256;6.456;2023-04-01T23:52:02;13.65;;;3.13;;
51764;SDS011;37835;53.256;6.456;2023-04-01T23:54:39;4.28;;;2.60;;
51764;SDS011;37835;53.256;6.456;2023-04-01T23:57:10;13.20;;;3.78;;
51764;SDS011;37835;53.256;6.456;2023-04-01T23:59:39;9.35;;;3.40;;
